createdAt,value
2018-08-24T00:00:02.245Z,62.26
2018-08-24T00:02:33.559Z,62.87
2018-08-24T00:05:05.158Z,63.37
2018-08-24T00:07:35.516Z,62.90
2018-08-24T00:10:07.842Z,63.39
2018-08-24T00:12:38.498Z,63.03
2018-08-24T00:15:09.006Z,63.18
2018-08-24T00:17:39.589Z,64.28
2018-08-24T00:20:09.930Z,63.49
2018-08-24T00:27:28.935Z,64.93
2018-08-24T00:29:59.587Z,65.18
2018-08-24T00:32:31.064Z,64.97
2018-08-24T00:35:02.160Z,64.31
2018-08-24T00:37:33.557Z,64.79
2018-08-24T00:40:03.756Z,64.66
2018-08-24T00:42:35.091Z,65.14
2018-08-24T00:45:06.857Z,64.42
2018-08-24T00:47:36.960Z,65.20
2018-08-24T00:50:07.527Z,64.96
2018-08-24T00:52:38.415Z,65.02
2018-08-24T00:55:08.877Z,64.29
2018-08-24T00:57:38.970Z,64.39
2018-08-24T01:00:10.754Z,65.52
2018-08-24T01:02:41.790Z,65.95
2018-08-24T01:05:12.129Z,65.73
2018-08-24T01:07:48.156Z,66.27
2018-08-24T01:10:24.471Z,65.75
2018-08-24T01:12:56.595Z,66.56
2018-08-24T01:15:27.555Z,66.70
2018-08-24T01:18:03.731Z,67.60
2018-08-24T01:20:34.943Z,67.67
2018-08-24T01:23:05.966Z,67.25
2018-08-24T01:25:37.422Z,66.75
2018-08-24T01:28:09.293Z,67.98
2018-08-24T01:30:39.276Z,66.76
2018-08-24T01:33:09.354Z,67.61
2018-08-24T01:35:40.658Z,67.53
2018-08-24T01:38:11.778Z,67.98
2018-08-24T01:40:43.653Z,68.33
2018-08-24T01:43:14.124Z,69.27
2018-08-24T01:45:45.259Z,69.36
2018-08-24T01:48:16.107Z,69.81
2018-08-24T01:50:46.303Z,69.47
2018-08-24T01:53:17.417Z,68.81
2018-08-24T01:55:48.197Z,69.54
2018-08-24T01:58:19.269Z,70.65
2018-08-24T02:00:50.271Z,70.39
2018-08-24T02:03:21.421Z,70.10
2018-08-24T02:05:53.717Z,69.61
2018-08-24T02:08:24.391Z,69.39
2018-08-24T02:10:55.150Z,70.30
2018-08-24T02:13:31.037Z,70.09
2018-08-24T02:16:01.947Z,70.44
2018-08-24T02:18:37.689Z,70.08
2018-08-24T02:21:14.811Z,70.78
2018-08-24T02:23:45.713Z,71.09
2018-08-24T02:26:16.834Z,70.77
2018-08-24T02:28:48.486Z,70.04
2018-08-24T02:31:18.804Z,70.42
2018-08-24T02:33:49.161Z,70.41
2018-08-24T02:36:20.235Z,70.16
2018-08-24T02:38:50.367Z,70.36
2018-08-24T02:41:20.407Z,70.48
2018-08-24T02:43:50.482Z,69.58
2018-08-24T02:46:21.895Z,69.43
2018-08-24T02:48:52.107Z,70.41
2018-08-24T02:51:22.237Z,70.18
2018-08-24T02:53:52.978Z,70.46
2018-08-24T02:56:24.133Z,70.58
2018-08-24T02:58:54.912Z,69.78
2018-08-24T03:01:27.385Z,69.88
2018-08-24T03:03:58.026Z,69.57
2018-08-24T03:06:29.610Z,70.58
2018-08-24T03:08:59.754Z,70.60
2018-08-24T03:11:30.314Z,70.06
2018-08-24T03:14:02.042Z,70.46
2018-08-24T03:16:32.793Z,70.45
2018-08-24T03:19:04.828Z,70.79
2018-08-24T03:21:36.060Z,71.02
2018-08-24T03:24:07.389Z,71.22
2018-08-24T03:26:38.406Z,71.93
2018-08-24T03:29:09.238Z,71.09
2018-08-24T03:31:39.634Z,71.42
2018-08-24T03:34:10.559Z,71.75
2018-08-24T03:36:40.926Z,72.19
2018-08-24T03:39:11.862Z,72.71
2018-08-24T03:41:45.725Z,72.95
2018-08-24T03:44:17.010Z,72.84
2018-08-24T03:46:47.221Z,73.97
2018-08-24T03:49:17.312Z,74.48
2018-08-24T03:51:49.118Z,74.20
2018-08-24T03:54:21.282Z,75.09
2018-08-24T03:56:54.624Z,74.90
2018-08-24T03:59:26.678Z,74.44
2018-08-24T04:01:57.800Z,75.04
2018-08-24T04:04:28.242Z,75.20
2018-08-24T04:06:59.303Z,74.92
2018-08-24T04:09:29.960Z,75.66
2018-08-24T04:12:01.097Z,75.08
2018-08-24T04:14:32.980Z,75.83
2018-08-24T04:17:08.901Z,74.94
2018-08-24T04:19:40.058Z,75.61
2018-08-24T04:22:10.205Z,75.57
2018-08-24T04:24:41.027Z,75.46
2018-08-24T04:27:13.269Z,76.67
2018-08-24T04:29:47.033Z,76.30
2018-08-24T04:32:17.153Z,75.92
2018-08-24T04:34:47.396Z,75.29
2018-08-24T04:37:17.753Z,75.31
2018-08-24T04:39:48.945Z,74.90
2018-08-24T04:42:20.071Z,75.66
2018-08-24T04:44:50.183Z,74.44
2018-08-24T04:47:22.411Z,73.53
2018-08-24T04:49:54.432Z,73.79
2018-08-24T04:52:25.419Z,74.18
2018-08-24T04:54:56.331Z,74.78
2018-08-24T04:57:26.988Z,74.35
2018-08-24T04:59:57.084Z,74.29
2018-08-24T05:02:28.259Z,74.14
2018-08-24T05:04:58.382Z,74.30
2018-08-24T05:07:29.819Z,74.14
2018-08-24T05:10:00.024Z,74.53
2018-08-24T05:12:31.861Z,73.63
2018-08-24T05:15:03.215Z,72.50
2018-08-24T05:17:37.665Z,72.49
2018-08-24T05:20:10.575Z,71.80
2018-08-24T05:22:41.222Z,72.45
2018-08-24T05:25:13.544Z,71.89
2018-08-24T05:27:43.931Z,71.86
2018-08-24T05:30:14.357Z,70.95
2018-08-24T05:32:46.374Z,69.99
2018-08-24T05:35:17.482Z,70.12
2018-08-24T05:37:49.111Z,68.90
2018-08-24T05:40:19.801Z,68.50
2018-08-24T05:42:49.903Z,68.60
2018-08-24T05:45:21.255Z,68.95
2018-08-24T05:47:51.872Z,69.21
2018-08-24T05:50:22.118Z,68.35
2018-08-24T05:52:52.843Z,69.35
2018-08-24T05:55:23.978Z,68.18
2018-08-24T05:57:55.251Z,68.34
2018-08-24T06:00:33.173Z,67.88
2018-08-24T06:03:05.016Z,67.89
2018-08-24T06:05:35.261Z,67.01
2018-08-24T06:08:06.863Z,66.86
2018-08-24T06:10:37.635Z,66.14
2018-08-24T06:13:08.484Z,65.99
2018-08-24T06:15:38.709Z,63.37
2018-08-24T06:18:08.805Z,61.83
2018-08-24T06:20:39.187Z,62.68
2018-08-24T06:23:09.787Z,62.75
2018-08-24T06:25:40.687Z,62.01
2018-08-24T06:28:11.510Z,62.33
2018-08-24T06:30:42.659Z,60.90
2018-08-24T06:33:12.796Z,60.93
2018-08-24T06:35:44.809Z,62.41
2018-08-24T06:38:15.903Z,61.83
2018-08-24T06:40:47.937Z,61.24
2018-08-24T06:43:19.398Z,60.71
2018-08-24T06:45:50.353Z,60.49
2018-08-24T06:48:21.813Z,61.18
2018-08-24T06:50:52.367Z,60.64
2018-08-24T06:53:23.203Z,61.67
2018-08-24T06:55:54.264Z,61.95
2018-08-24T06:58:24.770Z,62.52
2018-08-24T07:00:57.790Z,62.93
2018-08-24T07:03:30.842Z,63.77
2018-08-24T07:06:03.379Z,62.85
2018-08-24T07:08:33.679Z,63.24
2018-08-24T07:11:04.718Z,63.06
2018-08-24T07:13:34.809Z,62.58
2018-08-24T07:16:07.813Z,61.85
2018-08-24T07:18:38.600Z,60.99
2018-08-24T07:21:08.942Z,59.48
2018-08-24T07:23:39.103Z,59.44
2018-08-24T07:26:11.265Z,59.23
2018-08-24T07:28:42.599Z,59.20
2018-08-24T07:31:13.255Z,57.89
2018-08-24T07:33:44.909Z,58.62
2018-08-24T07:36:16.561Z,57.49
2018-08-24T07:38:48.330Z,56.73
2018-08-24T07:41:18.511Z,54.88
2018-08-24T07:43:50.264Z,55.96
2018-08-24T07:46:21.228Z,55.75
2018-08-24T07:48:51.310Z,52.93
2018-08-24T07:51:21.478Z,52.75
2018-08-24T07:53:52.879Z,52.92
2018-08-24T07:56:22.946Z,53.60
2018-08-24T07:58:53.094Z,53.03
2018-08-24T08:01:23.264Z,52.92
2018-08-24T08:03:54.895Z,52.19
2018-08-24T08:06:25.459Z,52.39
2018-08-24T08:08:55.842Z,51.04
2018-08-24T08:11:27.113Z,50.32
2018-08-24T08:13:57.209Z,52.51
2018-08-24T08:16:27.413Z,52.98
2018-08-24T08:18:57.567Z,53.31
2018-08-24T08:21:27.623Z,54.10
2018-08-24T08:23:57.756Z,54.11
2018-08-24T08:26:29.007Z,53.44
2018-08-24T08:28:59.058Z,52.81
2018-08-24T08:31:30.789Z,53.91
2018-08-24T08:34:01.520Z,55.00
2018-08-24T08:36:32.472Z,54.85
2018-08-24T08:39:04.398Z,53.23
2018-08-24T08:41:35.573Z,54.10
2018-08-24T08:44:07.116Z,52.80
2018-08-24T08:46:40.114Z,52.67
2018-08-24T08:49:11.377Z,48.94
2018-08-24T08:51:41.882Z,46.10
2018-08-24T08:54:13.078Z,47.60
2018-08-24T08:56:44.524Z,46.86
2018-08-24T08:59:15.939Z,44.10
2018-08-24T09:01:46.770Z,44.22
2018-08-24T09:04:18.075Z,45.45
2018-08-24T09:06:48.797Z,46.73
2018-08-24T09:09:19.274Z,45.68
2018-08-24T09:11:49.833Z,45.81
2018-08-24T09:14:21.254Z,45.71
2018-08-24T09:16:52.752Z,46.20
2018-08-24T09:19:28.776Z,47.86
2018-08-24T09:22:05.730Z,48.89
2018-08-24T09:24:41.086Z,50.37
2018-08-24T09:27:16.756Z,51.28
2018-08-24T09:29:47.202Z,50.56
2018-08-24T09:32:18.818Z,50.70
2018-08-24T09:34:50.124Z,50.35
2018-08-24T09:37:25.748Z,44.64
2018-08-24T09:39:55.962Z,40.04
2018-08-24T09:42:26.550Z,38.18
2018-08-24T09:44:57.669Z,37.08
2018-08-24T09:47:33.876Z,38.23
2018-08-24T09:50:09.882Z,41.44
2018-08-24T09:52:40.461Z,41.96
2018-08-24T09:55:10.904Z,44.24
2018-08-24T09:57:42.638Z,41.72
2018-08-24T10:00:13.790Z,42.42
2018-08-24T10:02:44.680Z,41.38
2018-08-24T10:05:21.323Z,40.82
2018-08-24T10:07:56.917Z,37.79
2018-08-24T10:10:28.252Z,39.85
2018-08-24T10:12:59.816Z,41.03
2018-08-24T10:15:30.627Z,42.38
2018-08-24T10:18:01.188Z,43.56
2018-08-24T10:20:32.270Z,43.53
2018-08-24T10:23:02.810Z,40.49
2018-08-24T10:25:33.228Z,41.07
2018-08-24T10:28:03.792Z,40.91
2018-08-24T10:30:35.070Z,40.88
2018-08-24T10:33:05.707Z,41.17
2018-08-24T10:35:38.021Z,42.81
2018-08-24T10:38:09.484Z,43.44
2018-08-24T10:40:40.690Z,43.47
2018-08-24T10:43:11.865Z,43.25
2018-08-24T10:45:41.930Z,43.89
2018-08-24T10:48:12.749Z,42.58
2018-08-24T10:50:43.403Z,38.92
2018-08-24T10:53:14.065Z,38.25
2018-08-24T10:55:44.507Z,38.37
2018-08-24T10:58:14.632Z,41.25
2018-08-24T11:00:44.877Z,41.82
2018-08-24T11:03:17.494Z,40.01
2018-08-24T11:05:47.737Z,38.91
2018-08-24T11:08:18.819Z,38.71
2018-08-24T11:10:49.265Z,37.96
2018-08-24T11:13:19.400Z,39.55
2018-08-24T11:15:52.255Z,39.03
2018-08-24T11:18:22.475Z,36.11
2018-08-24T11:20:53.585Z,36.68
2018-08-24T11:23:24.990Z,37.35
2018-08-24T11:25:55.885Z,40.46
2018-08-24T11:28:26.028Z,38.01
2018-08-24T11:30:56.575Z,36.86
2018-08-24T11:33:28.343Z,34.20
2018-08-24T11:35:59.673Z,31.26
2018-08-24T11:38:31.027Z,29.26
2018-08-24T11:41:01.791Z,27.41
2018-08-24T11:43:33.693Z,27.22
2018-08-24T11:46:05.822Z,30.40
2018-08-24T11:48:36.085Z,30.71
2018-08-24T11:51:07.901Z,32.98
2018-08-24T11:53:40.860Z,31.83
2018-08-24T11:56:11.365Z,33.54
2018-08-24T11:58:42.753Z,31.97
2018-08-24T12:01:14.005Z,32.75
2018-08-24T12:03:45.476Z,33.60
2018-08-24T12:06:16.136Z,35.40
2018-08-24T12:08:46.777Z,37.40
2018-08-24T12:11:20.924Z,39.17
2018-08-24T12:13:52.836Z,38.79
2018-08-24T12:16:23.229Z,39.32
2018-08-24T12:18:55.497Z,40.35
2018-08-24T12:21:26.262Z,40.59
2018-08-24T12:23:57.126Z,40.25
2018-08-24T12:26:29.755Z,42.13
2018-08-24T12:29:02.026Z,39.65
2018-08-24T12:31:34.701Z,36.29
2018-08-24T12:34:05.773Z,37.49
2018-08-24T12:36:38.211Z,40.91
2018-08-24T12:39:10.492Z,41.42
2018-08-24T12:41:40.677Z,39.09
2018-08-24T12:44:12.617Z,34.05
2018-08-24T12:46:43.843Z,35.77
2018-08-24T12:49:15.431Z,31.95
2018-08-24T12:51:45.638Z,31.19
2018-08-24T12:54:16.263Z,30.17
2018-08-24T12:56:48.661Z,30.13
2018-08-24T12:59:20.150Z,33.39
2018-08-24T13:01:50.494Z,34.02
2018-08-24T13:04:20.977Z,34.89
2018-08-24T13:06:51.916Z,36.17
2018-08-24T13:09:23.791Z,34.55
2018-08-24T13:11:54.352Z,35.35
2018-08-24T13:14:26.054Z,32.61
2018-08-24T13:16:57.927Z,32.42
2018-08-24T13:19:29.281Z,34.52
2018-08-24T13:22:00.486Z,37.18
2018-08-24T13:24:31.402Z,39.13
2018-08-24T13:27:02.577Z,38.77
2018-08-24T13:29:33.102Z,38.87
2018-08-24T13:32:03.867Z,34.56
2018-08-24T13:34:34.487Z,33.80
2018-08-24T13:37:05.222Z,33.74
2018-08-24T13:39:35.652Z,32.83
2018-08-24T13:42:06.167Z,34.06
2018-08-24T13:44:36.737Z,36.75
2018-08-24T13:47:07.104Z,36.61
2018-08-24T13:49:37.888Z,38.49
2018-08-24T13:52:08.574Z,40.25
2018-08-24T13:54:38.829Z,41.61
2018-08-24T13:57:09.924Z,41.84
2018-08-24T13:59:40.640Z,43.76
2018-08-24T14:02:11.162Z,46.34
2018-08-24T14:04:42.885Z,46.58
2018-08-24T14:07:13.288Z,46.21
2018-08-24T14:09:43.916Z,46.85
2018-08-24T14:12:14.044Z,46.62
2018-08-24T14:14:45.045Z,46.40
2018-08-24T14:17:15.140Z,45.72
2018-08-24T14:19:45.236Z,46.33
2018-08-24T14:22:16.324Z,47.18
2018-08-24T14:24:46.977Z,46.99
2018-08-24T14:27:17.518Z,46.62
2018-08-24T14:29:47.611Z,48.40
2018-08-24T14:32:18.123Z,49.15
2018-08-24T14:34:49.989Z,49.33
2018-08-24T14:37:20.070Z,49.45
2018-08-24T14:39:50.559Z,49.47
2018-08-24T14:42:21.110Z,49.97
2018-08-24T14:44:51.949Z,50.48
2018-08-24T14:47:22.201Z,50.89
2018-08-24T14:49:53.015Z,51.18
2018-08-24T14:52:24.704Z,50.67
2018-08-24T14:54:55.183Z,49.44
2018-08-24T14:57:26.402Z,48.04
2018-08-24T14:59:57.447Z,48.79
2018-08-24T15:02:29.117Z,47.44
2018-08-24T15:04:59.559Z,46.92
2018-08-24T15:07:29.723Z,48.84
2018-08-24T15:10:00.755Z,49.90
2018-08-24T15:12:30.802Z,51.04
2018-08-24T15:15:01.789Z,51.08
2018-08-24T15:17:33.132Z,51.29
2018-08-24T15:20:04.558Z,51.53
2018-08-24T15:22:35.036Z,51.86
2018-08-24T15:25:07.019Z,52.22
2018-08-24T15:27:38.615Z,52.06
2018-08-24T15:30:12.637Z,51.97
2018-08-24T15:32:44.308Z,53.63
2018-08-24T15:35:14.951Z,54.02
2018-08-24T15:37:46.774Z,53.89
2018-08-24T15:40:17.508Z,53.98
2018-08-24T15:42:48.615Z,53.84
2018-08-24T15:45:21.413Z,53.49
2018-08-24T15:47:51.801Z,53.74
2018-08-24T15:50:24.407Z,53.11
2018-08-24T15:52:55.884Z,52.66
2018-08-24T15:55:27.095Z,51.71
2018-08-24T15:57:57.899Z,51.39
2018-08-24T16:00:28.044Z,51.82
2018-08-24T16:02:58.518Z,52.46
2018-08-24T16:05:29.984Z,52.36
2018-08-24T16:08:01.079Z,52.74
2018-08-24T16:10:34.374Z,52.45
2018-08-24T16:13:05.382Z,52.40
2018-08-24T16:15:35.974Z,51.85
2018-08-24T16:18:11.545Z,53.31
2018-08-24T16:20:42.059Z,52.34
2018-08-24T16:23:12.936Z,53.17
2018-08-24T16:25:44.138Z,53.80
2018-08-24T16:28:16.825Z,52.79
2018-08-24T16:30:47.105Z,53.41
2018-08-24T16:33:19.018Z,53.76
2018-08-24T16:35:49.438Z,53.48
2018-08-24T16:38:19.966Z,53.82
2018-08-24T16:40:51.433Z,53.98
2018-08-24T16:43:22.777Z,53.57
2018-08-24T16:45:54.939Z,54.04
2018-08-24T16:48:27.560Z,54.38
2018-08-24T16:50:59.082Z,54.47
2018-08-24T16:53:29.409Z,55.03
2018-08-24T16:56:00.538Z,54.07
2018-08-24T16:58:31.288Z,53.82
2018-08-24T17:01:03.384Z,54.35
2018-08-24T17:03:34.205Z,54.76
2018-08-24T17:06:05.614Z,54.04
2018-08-24T17:08:35.901Z,54.49
2018-08-24T17:11:06.783Z,54.13
2018-08-24T17:13:38.161Z,53.58
2018-08-24T17:16:08.938Z,53.66
2018-08-24T17:18:40.471Z,53.38
2018-08-24T17:21:12.067Z,53.05
2018-08-24T17:23:43.020Z,53.93
2018-08-24T17:26:13.624Z,53.66
2018-08-24T17:28:43.942Z,53.95
2018-08-24T17:31:14.646Z,53.45
2018-08-24T17:33:45.630Z,52.98
2018-08-24T17:36:16.823Z,53.50
2018-08-24T17:38:47.851Z,53.94
2018-08-24T17:41:18.129Z,54.30
2018-08-24T17:43:48.898Z,54.63
2018-08-24T17:46:19.661Z,54.63
2018-08-24T17:48:50.103Z,55.04
2018-08-24T17:51:20.380Z,55.56
2018-08-24T17:53:50.881Z,56.48
2018-08-24T17:56:22.831Z,56.45
2018-08-24T17:58:52.972Z,56.28
2018-08-24T18:01:24.872Z,56.38
2018-08-24T18:03:55.580Z,56.17
2018-08-24T18:06:25.947Z,56.21
2018-08-24T18:08:56.031Z,56.18
2018-08-24T18:11:26.573Z,56.76
2018-08-24T18:13:56.683Z,55.64
2018-08-24T18:16:28.408Z,55.58
2018-08-24T18:19:01.381Z,56.16
2018-08-24T18:21:32.056Z,56.33
2018-08-24T18:24:04.175Z,55.59
2018-08-24T18:26:36.329Z,54.77
2018-08-24T18:29:06.945Z,54.67
2018-08-24T18:31:38.130Z,55.25
2018-08-24T18:34:08.965Z,55.88
2018-08-24T18:36:41.900Z,55.62
2018-08-24T18:39:13.211Z,56.33
2018-08-24T18:41:45.102Z,55.60
2018-08-24T18:44:15.447Z,55.11
2018-08-24T18:46:46.039Z,56.21
2018-08-24T18:49:16.763Z,55.33
2018-08-24T18:51:47.455Z,56.18
2018-08-24T18:54:18.918Z,56.51
2018-08-24T18:56:49.559Z,56.91
2018-08-24T18:59:20.124Z,56.78
2018-08-24T19:01:51.479Z,57.32
2018-08-24T19:04:22.933Z,56.56
2018-08-24T19:06:54.560Z,57.43
2018-08-24T19:09:25.933Z,56.73
2018-08-24T19:12:02.471Z,56.49
2018-08-24T19:14:32.788Z,56.88
2018-08-24T19:17:05.116Z,57.55
2018-08-24T19:20:44.072Z,57.06
2018-08-24T19:23:15.193Z,57.90
2018-08-24T19:25:45.823Z,57.45
2018-08-24T19:32:59.769Z,57.74
2018-08-24T19:35:30.236Z,57.08
2018-08-24T19:38:01.450Z,57.56
2018-08-24T19:41:38.695Z,58.06
2018-08-24T19:44:10.935Z,57.89
2018-08-24T19:46:41.423Z,57.95
2018-08-24T19:49:15.141Z,58.27
2018-08-24T19:51:46.198Z,57.95
2018-08-24T19:54:17.268Z,58.48
2018-08-24T19:56:48.898Z,58.23
2018-08-24T19:59:21.124Z,58.94
2018-08-24T20:01:51.905Z,58.54
2018-08-24T20:04:22.739Z,58.97
2018-08-24T20:06:59.016Z,58.98
2018-08-24T20:09:34.670Z,59.48
2018-08-24T20:12:05.673Z,59.07
2018-08-24T20:14:41.033Z,59.41
2018-08-24T20:17:17.325Z,59.72
2018-08-24T20:19:47.387Z,59.39
2018-08-24T20:22:17.909Z,60.69
2018-08-24T20:24:49.166Z,60.70
2018-08-24T20:27:19.764Z,60.85
2018-08-24T20:29:51.187Z,60.75
2018-08-24T20:32:21.394Z,61.60
2018-08-24T20:34:52.658Z,61.49
2018-08-24T20:37:23.848Z,61.43
2018-08-24T20:39:53.985Z,61.50
2018-08-24T20:42:25.261Z,61.56
2018-08-24T20:44:55.334Z,62.24
2018-08-24T20:47:26.763Z,62.41
2018-08-24T20:49:57.018Z,61.96
2018-08-24T20:52:28.023Z,62.35
2018-08-24T20:54:59.760Z,62.08
2018-08-24T20:57:32.245Z,61.81
2018-08-24T21:00:04.195Z,61.89
2018-08-24T21:02:35.066Z,62.64
2018-08-24T21:05:06.055Z,62.13
2018-08-24T21:07:36.801Z,62.32
2018-08-24T21:10:07.484Z,62.19
2018-08-24T21:12:38.711Z,63.14
2018-08-24T21:15:09.781Z,63.32
2018-08-24T21:17:40.533Z,62.96
2018-08-24T21:20:10.820Z,62.79
2018-08-24T21:22:42.133Z,62.63
2018-08-24T21:25:14.200Z,63.29
2018-08-24T21:27:45.033Z,62.99
2018-08-24T21:30:15.592Z,63.44
2018-08-24T21:32:46.586Z,63.20
2018-08-24T21:35:17.854Z,63.23
2018-08-24T21:37:49.060Z,63.87
2018-08-24T21:40:22.220Z,63.96
2018-08-24T21:42:52.429Z,63.94
2018-08-24T21:45:22.656Z,63.90
2018-08-24T21:47:52.903Z,64.28
2018-08-24T21:50:23.644Z,63.57
2018-08-24T21:52:55.175Z,63.63
2018-08-24T21:55:25.401Z,64.62
2018-08-24T21:57:57.103Z,64.17
2018-08-24T22:00:27.573Z,63.57
2018-08-24T22:02:58.110Z,63.83
2018-08-24T22:05:29.901Z,63.81
2018-08-24T22:08:00.122Z,63.85
2018-08-24T22:10:30.702Z,64.22
2018-08-24T22:13:01.052Z,63.97
2018-08-24T22:15:31.975Z,64.30
2018-08-24T22:18:02.992Z,64.22
2018-08-24T22:20:33.182Z,64.44
2018-08-24T22:23:03.669Z,64.50
2018-08-24T22:25:34.382Z,64.68
2018-08-24T22:28:04.761Z,63.92
2018-08-24T22:30:35.001Z,64.27
2018-08-24T22:33:06.234Z,64.25
2018-08-24T22:35:37.047Z,64.79
2018-08-24T22:38:07.757Z,63.90
2018-08-24T22:40:38.758Z,63.93
2018-08-24T22:43:13.988Z,64.27
2018-08-24T22:45:45.043Z,64.57
2018-08-24T22:48:16.274Z,65.25
2018-08-24T22:50:46.915Z,64.44
2018-08-24T22:53:17.004Z,65.07
2018-08-24T22:55:47.195Z,65.27
2018-08-24T22:58:17.325Z,65.20
2018-08-24T23:00:48.465Z,64.98
2018-08-24T23:03:19.047Z,65.01
2018-08-24T23:05:49.431Z,65.24
2018-08-24T23:08:20.748Z,66.02
2018-08-24T23:10:51.998Z,65.86
2018-08-24T23:13:23.296Z,65.24
2018-08-24T23:15:55.216Z,65.52
2018-08-24T23:18:26.304Z,65.91
2018-08-24T23:20:56.820Z,65.37
2018-08-24T23:23:28.101Z,66.11
2018-08-24T23:25:59.893Z,65.59
2018-08-24T23:28:31.171Z,65.71
2018-08-24T23:31:03.326Z,65.52
2018-08-24T23:33:34.176Z,65.78
2018-08-24T23:36:05.990Z,65.78
2018-08-24T23:38:36.941Z,65.63
2018-08-24T23:41:08.024Z,65.81
2018-08-24T23:43:38.701Z,66.02
2018-08-24T23:46:10.670Z,65.63
2018-08-24T23:48:45.128Z,66.06
2018-08-24T23:51:16.220Z,65.92
2018-08-24T23:53:47.004Z,65.85
2018-08-24T23:56:17.668Z,65.61
2018-08-24T23:58:47.822Z,65.76
